createdAt,value
2023-11-18T00:02:44.094Z,6.31
2023-11-18T00:07:45.997Z,6.32
2023-11-18T00:12:47.978Z,6.33
2023-11-18T00:17:49.587Z,6.30
2023-11-18T00:22:52.538Z,6.29
2023-11-18T00:27:54.197Z,6.29
2023-11-18T00:32:55.852Z,6.27
2023-11-18T00:37:57.566Z,6.17
2023-11-18T00:42:59.207Z,5.98
2023-11-18T00:48:00.885Z,5.80
2023-11-18T00:53:02.617Z,5.72
2023-11-18T00:58:04.282Z,5.71
2023-11-18T01:03:06.058Z,5.72
2023-11-18T01:08:07.762Z,5.74
2023-11-18T01:13:10.277Z,5.85
2023-11-18T01:18:11.983Z,5.93
2023-11-18T01:23:13.880Z,5.85
2023-11-18T01:28:16.591Z,5.68
2023-11-18T01:33:19.625Z,5.51
2023-11-18T01:38:21.967Z,5.35
2023-11-18T01:43:23.814Z,5.20
2023-11-18T01:48:27.947Z,5.08
2023-11-18T01:53:30.247Z,4.97
2023-11-18T01:58:32.685Z,4.91
2023-11-18T02:03:34.514Z,4.90
2023-11-18T02:08:36.373Z,4.99
2023-11-18T02:13:41.961Z,5.08
2023-11-18T02:18:44.430Z,5.16
2023-11-18T02:23:49.204Z,5.23
2023-11-18T02:28:51.001Z,5.27
2023-11-18T02:34:01.276Z,5.38
2023-11-18T02:39:08.464Z,5.42
2023-11-18T02:44:11.414Z,5.52
2023-11-18T02:49:13.776Z,5.55
2023-11-18T02:54:17.513Z,5.38
2023-11-18T02:59:19.431Z,5.16
2023-11-18T03:04:21.036Z,5.08
2023-11-18T03:09:22.646Z,5.07
2023-11-18T03:14:24.421Z,5.04
2023-11-18T03:19:26.085Z,4.92
2023-11-18T03:24:27.683Z,4.67
2023-11-18T03:29:30.405Z,4.53
2023-11-18T03:34:32.152Z,4.40
2023-11-18T03:39:33.831Z,4.38
2023-11-18T03:44:35.440Z,4.35
2023-11-18T03:49:37.114Z,4.33
2023-11-18T03:54:38.793Z,4.27
2023-11-18T03:59:42.069Z,4.21
2023-11-18T04:04:43.711Z,4.10
2023-11-18T04:09:45.353Z,4.01
2023-11-18T04:14:47.009Z,3.93
2023-11-18T04:19:48.592Z,3.85
2023-11-18T04:24:51.180Z,3.74
2023-11-18T04:29:52.763Z,3.70
2023-11-18T04:34:54.354Z,3.60
2023-11-18T04:39:56.447Z,3.42
2023-11-18T04:44:58.898Z,3.34
2023-11-18T04:50:01.144Z,3.28
2023-11-18T04:55:03.196Z,3.15
2023-11-18T05:00:12.407Z,3.19
2023-11-18T05:05:15.869Z,3.30
2023-11-18T05:10:17.793Z,3.34
2023-11-18T05:15:19.498Z,3.39
2023-11-18T05:20:21.939Z,3.44
2023-11-18T05:25:24.031Z,3.38
2023-11-18T05:30:26.893Z,3.34
2023-11-18T05:35:29.914Z,3.30
2023-11-18T05:40:31.536Z,3.30
2023-11-18T05:45:45.330Z,3.28
2023-11-18T05:50:49.244Z,3.34
2023-11-18T05:55:51.911Z,3.43
2023-11-18T06:00:53.586Z,3.46
2023-11-18T06:05:55.423Z,3.48
2023-11-18T06:10:57.905Z,3.46
2023-11-18T06:16:03.136Z,3.34
2023-11-18T06:21:04.875Z,3.26
2023-11-18T06:26:06.794Z,3.16
2023-11-18T06:31:10.036Z,3.10
2023-11-18T06:36:14.632Z,3.04
2023-11-18T06:41:17.865Z,3.07
2023-11-18T06:46:25.738Z,3.16
2023-11-18T06:51:28.934Z,3.23
2023-11-18T06:56:31.384Z,3.30
2023-11-18T07:01:33.100Z,3.40
2023-11-18T07:06:39.121Z,3.46
2023-11-18T07:11:42.143Z,3.63
2023-11-18T07:16:45.111Z,3.81
2023-11-18T07:21:48.015Z,3.93
2023-11-18T07:26:52.195Z,4.02
2023-11-18T07:31:55.950Z,4.13
2023-11-18T07:36:57.644Z,4.20
2023-11-18T07:42:00.321Z,4.26
2023-11-18T07:47:05.566Z,4.47
2023-11-18T07:52:07.185Z,4.56
2023-11-18T07:57:11.733Z,4.67
2023-11-18T08:02:15.846Z,4.78
2023-11-18T08:07:17.447Z,4.90
2023-11-18T08:12:18.995Z,4.97
2023-11-18T08:17:21.568Z,5.03
2023-11-18T08:22:24.263Z,5.12
2023-11-18T08:27:26.014Z,5.16
2023-11-18T08:32:27.658Z,5.36
2023-11-18T08:37:29.333Z,5.59
2023-11-18T08:42:32.860Z,5.87
2023-11-18T08:47:34.424Z,6.07
2023-11-18T08:52:37.972Z,6.14
2023-11-18T08:57:53.793Z,6.20
2023-11-18T09:02:55.569Z,6.26
2023-11-18T09:07:58.983Z,6.32
2023-11-18T09:13:02.361Z,6.36
2023-11-18T09:18:04.187Z,6.45
2023-11-18T09:23:06.244Z,6.50
2023-11-18T09:28:11.401Z,6.65
2023-11-18T09:33:15.321Z,6.89
2023-11-18T09:38:17.709Z,7.20
2023-11-18T09:43:20.397Z,7.47
2023-11-18T09:48:26.340Z,7.66
2023-11-18T09:53:33.105Z,7.85
2023-11-18T09:58:45.990Z,8.12
2023-11-18T10:03:48.008Z,8.29
2023-11-18T10:08:54.517Z,8.40
2023-11-18T10:13:56.167Z,8.53
2023-11-18T10:19:02.252Z,8.66
2023-11-18T10:24:04.253Z,8.71
2023-11-18T10:29:09.149Z,8.87
2023-11-18T10:34:12.826Z,8.91
2023-11-18T10:39:17.365Z,8.94
2023-11-18T10:44:19.355Z,8.99
2023-11-18T10:49:24.229Z,9.15
2023-11-18T10:54:27.607Z,9.26
2023-11-18T10:59:29.480Z,9.30
2023-11-18T11:04:44.245Z,9.11
2023-11-18T11:09:47.202Z,9.06
2023-11-18T11:15:01.067Z,9.15
2023-11-18T11:20:34.132Z,9.28
2023-11-18T11:25:47.538Z,9.44
2023-11-18T11:31:05.240Z,9.49
2023-11-18T11:36:12.796Z,9.51
2023-11-18T11:41:22.082Z,9.51
2023-11-18T11:46:25.969Z,9.49
2023-11-18T11:51:41.010Z,9.46
2023-11-18T11:57:02.539Z,9.51
2023-11-18T12:02:10.365Z,9.52
2023-11-18T12:07:20.634Z,9.50
2023-11-18T12:12:27.582Z,9.38
2023-11-18T12:17:33.790Z,9.29
2023-11-18T12:23:16.060Z,9.29
2023-11-18T12:28:22.505Z,9.27
2023-11-18T12:33:47.595Z,9.20
2023-11-18T12:39:14.921Z,9.12
2023-11-18T12:44:22.736Z,9.15
2023-11-18T12:49:25.999Z,9.31
2023-11-18T12:54:28.584Z,9.42
2023-11-18T12:59:31.675Z,9.41
2023-11-18T13:04:35.214Z,9.32
2023-11-18T13:09:37.358Z,9.21
2023-11-18T13:14:40.492Z,9.03
2023-11-18T13:19:42.798Z,8.90
2023-11-18T13:24:47.134Z,8.71
2023-11-18T13:29:54.504Z,8.56
2023-11-18T13:34:56.497Z,8.55
2023-11-18T13:40:01.087Z,8.50
2023-11-18T13:45:24.042Z,8.56
2023-11-18T13:50:38.827Z,8.78
2023-11-18T13:55:41.286Z,9.05
2023-11-18T14:00:43.401Z,9.16
2023-11-18T14:05:48.464Z,9.24
2023-11-18T14:11:02.119Z,9.19
2023-11-18T14:16:10.709Z,9.23
2023-11-18T14:21:15.267Z,9.13
2023-11-18T14:26:16.928Z,9.04
2023-11-18T14:31:19.268Z,9.03
2023-11-18T14:36:20.976Z,9.06
2023-11-18T14:41:29.600Z,9.06
2023-11-18T14:46:32.556Z,9.03
2023-11-18T14:51:34.800Z,8.93
2023-11-18T14:56:36.524Z,8.85
2023-11-18T15:01:38.474Z,8.77
2023-11-18T15:06:40.852Z,8.68
2023-11-18T15:11:42.447Z,8.56
2023-11-18T15:16:44.610Z,8.43
2023-11-18T15:21:47.031Z,8.36
2023-11-18T15:26:51.005Z,8.23
2023-11-18T15:31:56.077Z,8.17
2023-11-18T15:37:01.861Z,8.13
2023-11-18T15:42:06.815Z,8.06
2023-11-18T15:47:10.893Z,7.98
2023-11-18T15:52:13.512Z,7.89
2023-11-18T15:57:15.103Z,7.79
2023-11-18T16:02:17.474Z,7.74
2023-11-18T16:07:19.256Z,7.73
2023-11-18T16:12:20.817Z,7.73
2023-11-18T16:17:22.595Z,7.82
2023-11-18T16:22:25.289Z,7.89
2023-11-18T16:27:26.849Z,7.91
2023-11-18T16:32:28.540Z,7.91
2023-11-18T16:37:30.251Z,7.93
2023-11-18T16:42:31.811Z,7.85
2023-11-18T16:47:37.321Z,7.83
2023-11-18T16:52:40.283Z,7.77
2023-11-18T16:57:41.982Z,7.83
2023-11-18T17:02:45.255Z,7.88
2023-11-18T17:07:47.079Z,7.91
2023-11-18T17:12:52.385Z,7.90
2023-11-18T17:18:01.971Z,7.89
2023-11-18T17:23:04.747Z,7.70
2023-11-18T17:28:07.220Z,7.56
2023-11-18T17:33:08.851Z,7.52
2023-11-18T17:38:10.593Z,7.59
2023-11-18T17:43:12.390Z,7.54
2023-11-18T17:48:14.114Z,7.60
2023-11-18T17:53:15.797Z,7.61
2023-11-18T17:58:17.617Z,7.51
2023-11-18T18:03:19.636Z,7.40
2023-11-18T18:08:21.334Z,7.49
2023-11-18T18:13:22.909Z,7.58
2023-11-18T18:18:24.508Z,7.50
2023-11-18T18:23:26.085Z,7.50
2023-11-18T18:28:27.698Z,7.53
2023-11-18T18:33:29.450Z,7.54
2023-11-18T18:38:31.143Z,7.59
2023-11-18T18:43:32.805Z,7.61
2023-11-18T18:48:34.405Z,7.60
2023-11-18T18:53:36.139Z,7.65
2023-11-18T18:58:37.880Z,7.63
2023-11-18T19:03:39.670Z,7.61
2023-11-18T19:08:43.254Z,7.73
2023-11-18T19:13:44.890Z,7.86
2023-11-18T19:18:46.976Z,7.86
2023-11-18T19:23:48.618Z,7.91
2023-11-18T19:28:50.489Z,7.96
2023-11-18T19:33:52.071Z,8.01
2023-11-18T19:38:54.020Z,8.07
2023-11-18T19:43:56.869Z,8.09
2023-11-18T19:48:58.684Z,8.02
2023-11-18T19:54:00.263Z,7.97
2023-11-18T19:59:01.997Z,7.92
2023-11-18T20:04:03.781Z,8.00
2023-11-18T20:09:07.552Z,8.05
2023-11-18T20:14:09.138Z,8.22
2023-11-18T20:19:10.839Z,8.42
2023-11-18T20:24:12.417Z,8.60
2023-11-18T20:29:16.629Z,8.72
2023-11-18T20:34:19.222Z,8.83
2023-11-18T20:39:21.036Z,8.91
2023-11-18T20:44:22.629Z,9.01
2023-11-18T20:49:26.057Z,9.08
2023-11-18T20:54:27.659Z,9.12
2023-11-18T20:59:29.281Z,9.18
2023-11-18T21:04:31.609Z,9.21
2023-11-18T21:09:33.314Z,9.18
2023-11-18T21:14:34.914Z,9.16
2023-11-18T21:19:36.500Z,9.12
2023-11-18T21:24:38.092Z,8.84
2023-11-18T21:29:39.688Z,8.56
2023-11-18T21:34:46.027Z,8.49
2023-11-18T21:39:47.605Z,8.44
2023-11-18T21:44:49.208Z,8.29
2023-11-18T21:49:52.513Z,8.18
2023-11-18T21:54:54.722Z,8.12
2023-11-18T21:59:56.391Z,8.09
2023-11-18T22:04:59.299Z,8.10
2023-11-18T22:10:01.158Z,8.10
2023-11-18T22:15:05.428Z,8.14
2023-11-18T22:20:13.918Z,8.14
2023-11-18T22:25:16.201Z,8.19
2023-11-18T22:30:18.367Z,8.26
2023-11-18T22:35:20.882Z,8.28
2023-11-18T22:40:23.157Z,8.36
2023-11-18T22:45:24.736Z,8.40
2023-11-18T22:50:26.363Z,8.44
2023-11-18T22:55:28.409Z,8.48
2023-11-18T23:00:39.197Z,8.49
2023-11-18T23:05:41.437Z,8.51
2023-11-18T23:10:47.751Z,8.52
2023-11-18T23:15:49.594Z,8.52
2023-11-18T23:20:51.419Z,8.56
2023-11-18T23:25:53.162Z,8.61
2023-11-18T23:30:58.342Z,8.67
2023-11-18T23:36:00.123Z,8.75
2023-11-18T23:41:01.805Z,8.80
2023-11-18T23:46:06.715Z,8.82
2023-11-18T23:51:11.152Z,8.85
2023-11-18T23:56:12.760Z,8.91
